THY6ZU LTFM-LTAU
Flight info
| Callsign | THY6ZU |
|---|---|
| Flight time | 1h 4m |
| Altitude | 31000 |
| Route | VICEN1D/35L VICEN UT57 VEVUD UT341 BAG UL614 MARTI UW76 SARIZ |
| Aircraft | B738/M-VGDW/C |
Departure
| Time | 2026-04-17 21:03 |
|---|---|
| Airport | İstanbul Airport (LTFM) |
Arrival
| Time | 2026-04-17 22:07 |
|---|---|
| Airport | Kayseri Erkilet International Airport (LTAU) |
| Time | Latitude | Longitude | Altitude | Speed | Heading |
|---|---|---|---|---|---|
| 2026-04-17 20:17 | 41.26777 | 28.73442 | 333 ft | 0 kts | 179° |
| 2026-04-17 20:46 | 41.26793 | 28.73441 | 329 ft | 4 kts | 176° |
| 2026-04-17 20:46 | 41.26820 | 28.73439 | 332 ft | 4 kts | 177° |
| 2026-04-17 20:46 | 41.26846 | 28.73440 | 329 ft | 4 kts | 204° |
| 2026-04-17 20:47 | 41.26865 | 28.73457 | 329 ft | 4 kts | 240° |
| 2026-04-17 20:47 | 41.26871 | 28.73490 | 329 ft | 4 kts | 270° |
| 2026-04-17 20:47 | 41.26871 | 28.73503 | 329 ft | 1 kts | 269° |
| 2026-04-17 20:50 | 41.26871 | 28.73499 | 329 ft | 2 kts | 269° |
| 2026-04-17 20:51 | 41.26871 | 28.73441 | 329 ft | 10 kts | 269° |
| 2026-04-17 20:51 | 41.26870 | 28.73330 | 333 ft | 12 kts | 268° |
| 2026-04-17 20:51 | 41.26868 | 28.73241 | 333 ft | 9 kts | 268° |
| 2026-04-17 20:51 | 41.26866 | 28.73164 | 330 ft | 8 kts | 269° |
| 2026-04-17 20:52 | 41.26865 | 28.73090 | 333 ft | 7 kts | 269° |
| 2026-04-17 20:52 | 41.26865 | 28.73078 | 333 ft | 0 kts | 269° |
| 2026-04-17 20:53 | 41.26865 | 28.73073 | 333 ft | 2 kts | 269° |
| 2026-04-17 20:53 | 41.26865 | 28.73062 | 333 ft | 2 kts | 270° |
| 2026-04-17 20:53 | 41.26865 | 28.73053 | 333 ft | 2 kts | 270° |
| 2026-04-17 20:54 | 41.26865 | 28.73044 | 333 ft | 0 kts | 270° |
| 2026-04-17 20:54 | 41.26858 | 28.73009 | 333 ft | 10 kts | 235° |
| 2026-04-17 20:55 | 41.26768 | 28.72991 | 330 ft | 15 kts | 180° |
| 2026-04-17 20:55 | 41.26668 | 28.72994 | 333 ft | 14 kts | 179° |
| 2026-04-17 20:55 | 41.26599 | 28.72970 | 329 ft | 5 kts | 228° |
| 2026-04-17 20:55 | 41.26596 | 28.72955 | 332 ft | 0 kts | 268° |
| 2026-04-17 20:57 | 41.26596 | 28.72954 | 332 ft | 1 kts | 268° |
| 2026-04-17 20:57 | 41.26595 | 28.72904 | 330 ft | 10 kts | 268° |
| 2026-04-17 20:58 | 41.26593 | 28.72775 | 333 ft | 15 kts | 269° |
| 2026-04-17 20:58 | 41.26592 | 28.72663 | 333 ft | 3 kts | 270° |
| 2026-04-17 20:58 | 41.26592 | 28.72646 | 333 ft | 0 kts | 270° |
| 2026-04-17 20:59 | 41.26591 | 28.72631 | 333 ft | 4 kts | 269° |
| 2026-04-17 21:00 | 41.26591 | 28.72557 | 333 ft | 13 kts | 269° |
| 2026-04-17 21:00 | 41.26622 | 28.72517 | 332 ft | 6 kts | 353° |
| 2026-04-17 21:00 | 41.26639 | 28.72517 | 332 ft | 0 kts | 0° |
| 2026-04-17 21:02 | 41.26642 | 28.72517 | 333 ft | 7 kts | 0° |
| 2026-04-17 21:03 | 41.26939 | 28.72509 | 329 ft | 78 kts | 358° |
| 2026-04-17 21:03 | 41.27703 | 28.72491 | 331 ft | 139 kts | 359° |
| 2026-04-17 21:03 | 41.28767 | 28.72491 | 681 ft | 158 kts | 2° |
| 2026-04-17 21:03 | 41.29868 | 28.72502 | 1466 ft | 158 kts | 2° |
| 2026-04-17 21:04 | 41.30956 | 28.72506 | 2271 ft | 159 kts | 3° |
| 2026-04-17 21:04 | 41.32148 | 28.72521 | 2666 ft | 188 kts | 4° |
| 2026-04-17 21:04 | 41.33554 | 28.72547 | 2868 ft | 215 kts | 5° |
| 2026-04-17 21:04 | 41.35112 | 28.72233 | 3117 ft | 244 kts | 343° |
| 2026-04-17 21:05 | 41.36633 | 28.71037 | 3590 ft | 266 kts | 323° |
| 2026-04-17 21:05 | 41.37795 | 28.69067 | 4399 ft | 278 kts | 299° |
| 2026-04-17 21:05 | 41.38219 | 28.66549 | 4851 ft | 285 kts | 273° |
| 2026-04-17 21:05 | 41.38192 | 28.63880 | 4987 ft | 291 kts | 271° |
| 2026-04-17 21:06 | 41.38139 | 28.61199 | 4994 ft | 288 kts | 270° |
| 2026-04-17 21:06 | 41.37776 | 28.58584 | 4991 ft | 290 kts | 245° |
| 2026-04-17 21:06 | 41.36573 | 28.56468 | 5013 ft | 288 kts | 217° |
| 2026-04-17 21:06 | 41.34788 | 28.55279 | 5286 ft | 290 kts | 191° |
| 2026-04-17 21:07 | 41.32805 | 28.55027 | 6166 ft | 285 kts | 175° |
| 2026-04-17 21:07 | 41.30819 | 28.55093 | 7028 ft | 287 kts | 175° |
| 2026-04-17 21:07 | 41.28810 | 28.55170 | 7837 ft | 291 kts | 175° |
| 2026-04-17 21:07 | 41.26781 | 28.55234 | 8661 ft | 293 kts | 175° |
| 2026-04-17 21:08 | 41.24810 | 28.55807 | 9380 ft | 290 kts | 148° |
| 2026-04-17 21:08 | 41.23192 | 28.57354 | 10165 ft | 287 kts | 135° |
| 2026-04-17 21:08 | 41.21712 | 28.59222 | 10589 ft | 303 kts | 133° |
| 2026-04-17 21:08 | 41.20159 | 28.61291 | 10760 ft | 327 kts | 133° |
| 2026-04-17 21:09 | 41.18498 | 28.63492 | 10925 ft | 349 kts | 134° |
| 2026-04-17 21:09 | 41.16706 | 28.65823 | 11092 ft | 370 kts | 134° |
| 2026-04-17 21:09 | 41.14844 | 28.68212 | 11352 ft | 384 kts | 135° |
| 2026-04-17 21:09 | 41.12905 | 28.70697 | 11910 ft | 389 kts | 133° |
| 2026-04-17 21:10 | 41.11217 | 28.73486 | 12584 ft | 389 kts | 122° |
| 2026-04-17 21:10 | 41.09794 | 28.76540 | 13196 ft | 392 kts | 121° |
| 2026-04-17 21:10 | 41.08362 | 28.79645 | 13731 ft | 396 kts | 121° |
| 2026-04-17 21:10 | 41.06882 | 28.82752 | 14303 ft | 400 kts | 122° |
| 2026-04-17 21:11 | 41.05363 | 28.85856 | 14904 ft | 402 kts | 123° |
| 2026-04-17 21:11 | 41.03827 | 28.88961 | 15498 ft | 406 kts | 123° |
| 2026-04-17 21:11 | 41.02270 | 28.92098 | 16045 ft | 408 kts | 124° |
| 2026-04-17 21:11 | 41.00475 | 28.95023 | 16584 ft | 411 kts | 134° |
| 2026-04-17 21:12 | 40.98394 | 28.97642 | 17115 ft | 414 kts | 137° |
| 2026-04-17 21:12 | 40.96282 | 29.00247 | 17589 ft | 417 kts | 136° |
| 2026-04-17 21:12 | 40.94170 | 29.02898 | 18087 ft | 420 kts | 136° |
| 2026-04-17 21:12 | 40.92068 | 29.05589 | 18576 ft | 422 kts | 135° |
| 2026-04-17 21:13 | 40.89964 | 29.08316 | 19017 ft | 425 kts | 135° |
| 2026-04-17 21:13 | 40.87850 | 29.11062 | 19487 ft | 427 kts | 135° |
| 2026-04-17 21:13 | 40.85740 | 29.13845 | 19925 ft | 430 kts | 132° |
| 2026-04-17 21:13 | 40.84086 | 29.17151 | 20303 ft | 435 kts | 113° |
| 2026-04-17 21:14 | 40.83210 | 29.20963 | 20776 ft | 436 kts | 104° |
| 2026-04-17 21:14 | 40.82523 | 29.24869 | 21194 ft | 438 kts | 104° |
| 2026-04-17 21:14 | 40.81786 | 29.28792 | 21557 ft | 441 kts | 105° |
| 2026-04-17 21:14 | 40.81013 | 29.32724 | 21896 ft | 444 kts | 105° |
| 2026-04-17 21:15 | 40.80226 | 29.36663 | 22254 ft | 446 kts | 105° |
| 2026-04-17 21:15 | 40.79431 | 29.40628 | 22617 ft | 448 kts | 105° |
| 2026-04-17 21:15 | 40.78633 | 29.44615 | 22945 ft | 450 kts | 105° |
| 2026-04-17 21:15 | 40.77843 | 29.48568 | 23243 ft | 452 kts | 105° |
| 2026-04-17 21:16 | 40.77039 | 29.52588 | 23581 ft | 454 kts | 106° |
| 2026-04-17 21:16 | 40.76229 | 29.56623 | 23896 ft | 456 kts | 106° |
| 2026-04-17 21:16 | 40.75405 | 29.60721 | 24183 ft | 458 kts | 106° |
| 2026-04-17 21:16 | 40.74595 | 29.64743 | 24465 ft | 460 kts | 106° |
| 2026-04-17 21:17 | 40.73771 | 29.68830 | 24798 ft | 461 kts | 105° |
| 2026-04-17 21:17 | 40.73198 | 29.72990 | 25020 ft | 465 kts | 95° |
| 2026-04-17 21:17 | 40.73117 | 29.77260 | 25290 ft | 467 kts | 91° |
| 2026-04-17 21:17 | 40.73127 | 29.81551 | 25551 ft | 469 kts | 91° |
| 2026-04-17 21:18 | 40.73127 | 29.85854 | 25802 ft | 471 kts | 91° |
| 2026-04-17 21:18 | 40.73088 | 29.90181 | 26110 ft | 471 kts | 92° |
| 2026-04-17 21:18 | 40.73018 | 29.94496 | 26498 ft | 469 kts | 92° |
| 2026-04-17 21:18 | 40.72933 | 29.98780 | 26916 ft | 467 kts | 92° |
| 2026-04-17 21:19 | 40.72845 | 30.03050 | 27297 ft | 465 kts | 93° |
| 2026-04-17 21:19 | 40.72636 | 30.07302 | 27586 ft | 464 kts | 102° |
| 2026-04-17 21:19 | 40.71688 | 30.11352 | 27886 ft | 462 kts | 112° |
| 2026-04-17 21:19 | 40.70554 | 30.15302 | 28299 ft | 460 kts | 111° |
| 2026-04-17 21:20 | 40.69455 | 30.19267 | 28707 ft | 458 kts | 111° |
| 2026-04-17 21:20 | 40.68403 | 30.23211 | 29079 ft | 457 kts | 110° |
| 2026-04-17 21:20 | 40.67368 | 30.27157 | 29450 ft | 455 kts | 110° |
| 2026-04-17 21:20 | 40.66163 | 30.30997 | 29768 ft | 453 kts | 121° |
| 2026-04-17 21:21 | 40.64294 | 30.34313 | 30087 ft | 451 kts | 130° |
| 2026-04-17 21:21 | 40.62979 | 30.36423 | 30320 ft | 450 kts | 130° |
| 2026-04-17 21:21 | 40.61013 | 30.39628 | 30661 ft | 449 kts | 129° |
| 2026-04-17 21:21 | 40.59079 | 30.42861 | 30873 ft | 448 kts | 128° |
| 2026-04-17 21:22 | 40.55301 | 30.49345 | 30869 ft | 445 kts | 124° |
| 2026-04-17 21:22 | 40.52598 | 30.56673 | 30867 ft | 449 kts | 108° |
| 2026-04-17 21:23 | 40.51183 | 30.64681 | 30866 ft | 451 kts | 104° |
| 2026-04-17 21:23 | 40.49784 | 30.72730 | 30860 ft | 452 kts | 105° |
| 2026-04-17 21:24 | 40.48049 | 30.80642 | 30861 ft | 451 kts | 109° |
| 2026-04-17 21:24 | 40.46142 | 30.88503 | 30861 ft | 451 kts | 110° |
| 2026-04-17 21:25 | 40.44264 | 30.96316 | 30848 ft | 451 kts | 110° |
| 2026-04-17 21:25 | 40.42397 | 31.04175 | 30847 ft | 451 kts | 110° |
| 2026-04-17 21:26 | 40.40532 | 31.12020 | 30859 ft | 450 kts | 110° |
| 2026-04-17 21:26 | 40.38664 | 31.19842 | 30847 ft | 449 kts | 110° |
| 2026-04-17 21:27 | 40.37060 | 31.27766 | 30844 ft | 450 kts | 105° |
| 2026-04-17 21:27 | 40.35821 | 31.35802 | 30842 ft | 449 kts | 104° |
| 2026-04-17 21:28 | 40.34581 | 31.43814 | 30841 ft | 448 kts | 105° |
| 2026-04-17 21:28 | 40.33294 | 31.51800 | 30840 ft | 447 kts | 105° |
| 2026-04-17 21:29 | 40.31989 | 31.59743 | 30843 ft | 446 kts | 106° |
| 2026-04-17 21:29 | 40.30678 | 31.67679 | 30847 ft | 445 kts | 106° |
| 2026-04-17 21:30 | 40.29367 | 31.75595 | 30842 ft | 443 kts | 106° |
| 2026-04-17 21:30 | 40.28055 | 31.83479 | 30830 ft | 443 kts | 106° |
| 2026-04-17 21:31 | 40.26749 | 31.91298 | 30830 ft | 442 kts | 107° |
| 2026-04-17 21:31 | 40.25178 | 31.99046 | 30841 ft | 439 kts | 110° |
| 2026-04-17 21:32 | 40.23462 | 32.06722 | 30826 ft | 439 kts | 110° |
| 2026-04-17 21:32 | 40.21753 | 32.14409 | 30817 ft | 439 kts | 110° |
| 2026-04-17 21:33 | 40.20067 | 32.22081 | 30817 ft | 439 kts | 110° |
| 2026-04-17 21:33 | 40.18385 | 32.29753 | 30823 ft | 439 kts | 110° |
| 2026-04-17 21:34 | 40.16698 | 32.37424 | 30817 ft | 439 kts | 110° |
| 2026-04-17 21:35 | 40.14148 | 32.48962 | 30817 ft | 441 kts | 110° |
| 2026-04-17 21:35 | 40.12435 | 32.56678 | 30813 ft | 443 kts | 110° |
| 2026-04-17 21:36 | 40.10712 | 32.64420 | 30808 ft | 444 kts | 110° |
| 2026-04-17 21:36 | 40.08976 | 32.72185 | 30805 ft | 446 kts | 110° |
| 2026-04-17 21:37 | 40.07232 | 32.79964 | 30804 ft | 447 kts | 111° |
| 2026-04-17 21:37 | 40.05187 | 32.87603 | 30805 ft | 445 kts | 115° |
| 2026-04-17 21:38 | 40.02913 | 32.95120 | 30804 ft | 446 kts | 116° |
| 2026-04-17 21:38 | 40.00638 | 33.02661 | 30806 ft | 447 kts | 116° |
| 2026-04-17 21:39 | 39.98404 | 33.10179 | 30810 ft | 446 kts | 116° |
| 2026-04-17 21:39 | 39.96163 | 33.17752 | 30798 ft | 445 kts | 116° |
| 2026-04-17 21:40 | 39.93948 | 33.25214 | 30804 ft | 443 kts | 116° |
| 2026-04-17 21:40 | 39.91722 | 33.32685 | 30804 ft | 442 kts | 116° |
| 2026-04-17 21:41 | 39.89494 | 33.40140 | 30799 ft | 441 kts | 117° |
| 2026-04-17 21:41 | 39.87270 | 33.47564 | 30813 ft | 441 kts | 117° |
| 2026-04-17 21:42 | 39.85035 | 33.55002 | 30814 ft | 441 kts | 117° |
| 2026-04-17 21:42 | 39.82852 | 33.62460 | 30807 ft | 444 kts | 113° |
| 2026-04-17 21:43 | 39.81266 | 33.70266 | 30815 ft | 448 kts | 110° |
| 2026-04-17 21:43 | 39.79750 | 33.78122 | 30817 ft | 448 kts | 110° |
| 2026-04-17 21:44 | 39.78161 | 33.85969 | 30817 ft | 449 kts | 111° |
| 2026-04-17 21:44 | 39.76336 | 33.93696 | 30821 ft | 445 kts | 116° |
| 2026-04-17 21:45 | 39.74141 | 34.01200 | 30821 ft | 445 kts | 117° |
| 2026-04-17 21:45 | 39.71932 | 34.08724 | 30813 ft | 446 kts | 116° |
| 2026-04-17 21:46 | 39.69758 | 34.16296 | 30813 ft | 447 kts | 116° |
| 2026-04-17 21:46 | 39.67600 | 34.23862 | 30824 ft | 447 kts | 116° |
| 2026-04-17 21:47 | 39.65433 | 34.31437 | 30825 ft | 448 kts | 116° |
| 2026-04-17 21:47 | 39.63256 | 34.39012 | 30820 ft | 448 kts | 116° |
| 2026-04-17 21:48 | 39.61076 | 34.46582 | 30821 ft | 448 kts | 116° |
| 2026-04-17 21:48 | 39.58859 | 34.54127 | 30814 ft | 445 kts | 121° |
| 2026-04-17 21:49 | 39.55513 | 34.60710 | 30833 ft | 435 kts | 134° |
| 2026-04-17 21:49 | 39.51545 | 34.66614 | 30833 ft | 434 kts | 136° |
| 2026-04-17 21:49 | 39.49571 | 34.69494 | 30389 ft | 421 kts | 136° |
| 2026-04-17 21:50 | 39.47646 | 34.72327 | 29277 ft | 421 kts | 136° |
| 2026-04-17 21:50 | 39.45703 | 34.75205 | 27894 ft | 428 kts | 136° |
| 2026-04-17 21:50 | 39.43751 | 34.78111 | 26456 ft | 439 kts | 135° |
| 2026-04-17 21:50 | 39.41716 | 34.81148 | 25068 ft | 452 kts | 135° |
| 2026-04-17 21:51 | 39.39639 | 34.84256 | 23927 ft | 459 kts | 135° |
| 2026-04-17 21:51 | 39.37556 | 34.87378 | 23113 ft | 457 kts | 135° |
| 2026-04-17 21:51 | 39.35495 | 34.90469 | 22463 ft | 450 kts | 135° |
| 2026-04-17 21:51 | 39.33463 | 34.93512 | 21819 ft | 444 kts | 135° |
| 2026-04-17 21:52 | 39.31450 | 34.96516 | 21116 ft | 440 kts | 135° |
| 2026-04-17 21:52 | 39.29451 | 34.99494 | 20403 ft | 437 kts | 135° |
| 2026-04-17 21:52 | 39.27469 | 35.02443 | 19718 ft | 433 kts | 135° |
| 2026-04-17 21:52 | 39.25510 | 35.05369 | 19029 ft | 429 kts | 135° |
| 2026-04-17 21:53 | 39.23583 | 35.08300 | 18348 ft | 426 kts | 135° |
| 2026-04-17 21:53 | 39.21682 | 35.11213 | 17696 ft | 421 kts | 135° |
| 2026-04-17 21:53 | 39.19807 | 35.14083 | 17040 ft | 417 kts | 135° |
| 2026-04-17 21:53 | 39.17942 | 35.16928 | 16396 ft | 413 kts | 135° |
| 2026-04-17 21:54 | 39.16095 | 35.19737 | 15776 ft | 408 kts | 134° |
| 2026-04-17 21:54 | 39.14286 | 35.22481 | 15134 ft | 404 kts | 134° |
| 2026-04-17 21:54 | 39.12457 | 35.25254 | 14529 ft | 399 kts | 134° |
| 2026-04-17 21:54 | 39.10691 | 35.27930 | 13962 ft | 394 kts | 134° |
| 2026-04-17 21:55 | 39.08915 | 35.30621 | 13629 ft | 383 kts | 134° |
| 2026-04-17 21:55 | 39.07227 | 35.33179 | 13525 ft | 367 kts | 134° |
| 2026-04-17 21:55 | 39.05558 | 35.35503 | 13400 ft | 349 kts | 144° |
| 2026-04-17 21:55 | 39.03483 | 35.36972 | 13315 ft | 328 kts | 163° |
| 2026-04-17 21:56 | 39.01314 | 35.37611 | 13130 ft | 314 kts | 177° |
| 2026-04-17 21:56 | 38.99196 | 35.37588 | 13029 ft | 303 kts | 184° |
| 2026-04-17 21:56 | 38.97130 | 35.37409 | 12957 ft | 292 kts | 185° |
| 2026-04-17 21:56 | 38.95152 | 35.37217 | 12826 ft | 278 kts | 185° |
| 2026-04-17 21:57 | 38.93253 | 35.37036 | 12507 ft | 270 kts | 185° |
| 2026-04-17 21:57 | 38.91413 | 35.36831 | 12156 ft | 262 kts | 191° |
| 2026-04-17 21:57 | 38.89843 | 35.35759 | 11912 ft | 256 kts | 225° |
| 2026-04-17 21:57 | 38.88981 | 35.33785 | 11645 ft | 255 kts | 244° |
| 2026-04-17 21:58 | 38.88360 | 35.31661 | 11240 ft | 254 kts | 245° |
| 2026-04-17 21:58 | 38.87741 | 35.29539 | 10830 ft | 253 kts | 245° |
| 2026-04-17 21:58 | 38.87122 | 35.27430 | 10447 ft | 251 kts | 245° |
| 2026-04-17 21:58 | 38.86526 | 35.25414 | 10394 ft | 233 kts | 245° |
| 2026-04-17 21:59 | 38.85976 | 35.23537 | 10225 ft | 218 kts | 245° |
| 2026-04-17 21:59 | 38.85443 | 35.21728 | 9809 ft | 217 kts | 245° |
| 2026-04-17 21:59 | 38.84901 | 35.19917 | 9327 ft | 218 kts | 245° |
| 2026-04-17 21:59 | 38.84346 | 35.18103 | 8874 ft | 219 kts | 245° |
| 2026-04-17 22:00 | 38.83780 | 35.16290 | 8432 ft | 219 kts | 245° |
| 2026-04-17 22:00 | 38.83209 | 35.14489 | 8034 ft | 217 kts | 245° |
| 2026-04-17 22:00 | 38.82526 | 35.12811 | 7722 ft | 208 kts | 222° |
| 2026-04-17 22:00 | 38.81274 | 35.12089 | 7463 ft | 199 kts | 176° |
| 2026-04-17 22:01 | 38.79928 | 35.12521 | 7265 ft | 203 kts | 164° |
| 2026-04-17 22:01 | 38.78526 | 35.12927 | 7025 ft | 209 kts | 168° |
| 2026-04-17 22:01 | 38.77103 | 35.13365 | 6757 ft | 212 kts | 153° |
| 2026-04-17 22:01 | 38.76127 | 35.14692 | 6473 ft | 208 kts | 109° |
| 2026-04-17 22:02 | 38.75959 | 35.16473 | 6415 ft | 194 kts | 95° |
| 2026-04-17 22:02 | 38.75840 | 35.18186 | 6402 ft | 191 kts | 97° |
| 2026-04-17 22:02 | 38.75706 | 35.19870 | 6398 ft | 190 kts | 97° |
| 2026-04-17 22:02 | 38.75567 | 35.21558 | 6402 ft | 191 kts | 97° |
| 2026-04-17 22:03 | 38.75423 | 35.23257 | 6409 ft | 193 kts | 98° |
| 2026-04-17 22:03 | 38.75277 | 35.24962 | 6396 ft | 191 kts | 98° |
| 2026-04-17 22:03 | 38.75130 | 35.26653 | 6395 ft | 191 kts | 98° |
| 2026-04-17 22:03 | 38.74980 | 35.28356 | 6316 ft | 195 kts | 98° |
| 2026-04-17 22:04 | 38.74828 | 35.30089 | 6095 ft | 193 kts | 98° |
| 2026-04-17 22:04 | 38.74678 | 35.31768 | 5934 ft | 187 kts | 98° |
| 2026-04-17 22:04 | 38.74530 | 35.33425 | 5710 ft | 188 kts | 98° |
| 2026-04-17 22:04 | 38.74399 | 35.35097 | 5466 ft | 188 kts | 91° |
| 2026-04-17 22:05 | 38.74500 | 35.36200 | 5309 ft | 187 kts | 80° |
| 2026-04-17 22:05 | 38.74807 | 35.37816 | 5052 ft | 186 kts | 78° |
| 2026-04-17 22:05 | 38.75108 | 35.39372 | 4857 ft | 172 kts | 79° |
| 2026-04-17 22:05 | 38.75384 | 35.40826 | 4604 ft | 163 kts | 79° |
| 2026-04-17 22:06 | 38.75649 | 35.42229 | 4402 ft | 163 kts | 79° |
| 2026-04-17 22:06 | 38.76001 | 35.44091 | 4116 ft | 162 kts | 79° |
| 2026-04-17 22:06 | 38.76181 | 35.45040 | 3970 ft | 162 kts | 79° |
| 2026-04-17 22:06 | 38.76532 | 35.46900 | 3692 ft | 162 kts | 78° |
| 2026-04-17 22:07 | 38.76719 | 35.47839 | 3543 ft | 160 kts | 79° |
| 2026-04-17 22:07 | 38.76964 | 35.49140 | 3518 ft | 136 kts | 78° |
| 2026-04-17 22:07 | 38.77151 | 35.50120 | 3515 ft | 81 kts | 76° |
| 2026-04-17 22:07 | 38.77250 | 35.50647 | 3516 ft | 47 kts | 76° |
| 2026-04-17 22:08 | 38.77319 | 35.51008 | 3517 ft | 36 kts | 76° |
| 2026-04-17 22:08 | 38.77357 | 35.51200 | 3516 ft | 7 kts | 53° |
| 2026-04-17 22:08 | 38.77402 | 35.51198 | 3517 ft | 7 kts | 347° |
| 2026-04-17 22:08 | 38.77461 | 35.51180 | 3520 ft | 11 kts | 343° |
| 2026-04-17 22:09 | 38.77476 | 35.51097 | 3518 ft | 13 kts | 258° |
| 2026-04-17 22:09 | 38.77452 | 35.50979 | 3515 ft | 15 kts | 252° |
| 2026-04-17 22:09 | 38.77426 | 35.50837 | 3516 ft | 18 kts | 257° |
| 2026-04-17 22:09 | 38.77396 | 35.50677 | 3516 ft | 18 kts | 256° |
| 2026-04-17 22:10 | 38.77367 | 35.50524 | 3514 ft | 17 kts | 256° |
| 2026-04-17 22:10 | 38.77337 | 35.50378 | 3520 ft | 17 kts | 255° |
| 2026-04-17 22:10 | 38.77310 | 35.50237 | 3514 ft | 16 kts | 257° |
| 2026-04-17 22:10 | 38.77287 | 35.50104 | 3514 ft | 15 kts | 257° |
| 2026-04-17 22:11 | 38.77264 | 35.49976 | 3520 ft | 14 kts | 255° |
| 2026-04-17 22:11 | 38.77236 | 35.49841 | 3514 ft | 17 kts | 256° |
| 2026-04-17 22:11 | 38.77205 | 35.49676 | 3520 ft | 21 kts | 257° |
| 2026-04-17 22:11 | 38.77169 | 35.49483 | 3517 ft | 24 kts | 257° |
| 2026-04-17 22:12 | 38.77127 | 35.49264 | 3519 ft | 27 kts | 255° |
| 2026-04-17 22:12 | 38.77082 | 35.49032 | 3515 ft | 27 kts | 256° |
| 2026-04-17 22:12 | 38.77036 | 35.48786 | 3514 ft | 30 kts | 256° |
| 2026-04-17 22:12 | 38.77000 | 35.48595 | 3518 ft | 11 kts | 257° |
| 2026-04-17 22:13 | 38.76979 | 35.48488 | 3514 ft | 14 kts | 256° |
| 2026-04-17 22:13 | 38.76954 | 35.48348 | 3514 ft | 18 kts | 257° |
| 2026-04-17 22:13 | 38.76920 | 35.48178 | 3514 ft | 21 kts | 255° |
| 2026-04-17 22:13 | 38.76884 | 35.47982 | 3517 ft | 24 kts | 256° |
| 2026-04-17 22:14 | 38.76838 | 35.47853 | 3514 ft | 13 kts | 195° |
| 2026-04-17 22:14 | 38.76743 | 35.47888 | 3517 ft | 15 kts | 134° |
| 2026-04-17 22:14 | 38.76753 | 35.48026 | 3517 ft | 14 kts | 77° |
| 2026-04-17 22:14 | 38.76698 | 35.48104 | 3518 ft | 15 kts | 167° |
| 2026-04-17 22:15 | 38.76610 | 35.48121 | 3516 ft | 7 kts | 169° |
| 2026-04-17 22:15 | 38.76581 | 35.48129 | 3518 ft | 0 kts | 165° |